Flight Track Log - Related Links

Times and Time Zones

All times are in EDT time to prevent confusion due to time zone crossing. See the TYR843 flight status page for this flight to view local times or setup timezone preferences in your user account.

Time Position Orientation Groundspeed Altitude Reporting Facility
EDT Latitude Longitude Course Direction KTS MPH feet Rate Location/Type
Sun 05:37:00 PM 47.6947 16.7895 160° South  Level Estimated
Sun 05:38:00 PM 47.5907 16.8439 161° South  Level Estimated
Sun 05:39:00 PM 47.4867 16.8981 161° South  Level Estimated
Sun 05:40:00 PM 47.3827 16.9520 161° South  Level Estimated
Sun 05:41:00 PM 47.2786 17.0058 161° South  Level Estimated
Sun 05:42:00 PM 47.1746 17.0593 161° South  Level Estimated
Sun 05:43:00 PM 47.0705 17.1127 161° South  Level Estimated
Sun 05:44:00 PM 46.9664 17.1658 161° South  Level Estimated
Sun 05:45:00 PM 46.8622 17.2187 161° South  Level Estimated
Sun 05:46:00 PM 46.7580 17.2715 161° South  Level Estimated
Sun 05:47:00 PM 46.6539 17.3240 161° South  Level Estimated
Sun 05:48:00 PM 46.5496 17.3763 161° South  Level Estimated
Sun 05:49:00 PM 46.4454 17.4284 161° South  Level Estimated
Sun 05:50:00 PM 46.3411 17.4803 161° South  Level Estimated
Sun 05:51:00 PM 46.2368 17.5320 161° South  Level Estimated
Sun 05:52:00 PM 46.1325 17.5835 161° South  Level Estimated
Sun 05:53:00 PM 46.0282 17.6348 161° South  Level Estimated
Sun 05:54:00 PM 45.9238 17.6860 161° South  Level Estimated
Sun 05:55:00 PM 45.8195 17.7369 161° South  Level Estimated
Sun 05:56:00 PM 45.7151 17.7877 161° South  Level Estimated
Sun 05:57:00 PM 45.6106 17.8382 161° South  Level Estimated
Sun 05:58:00 PM 45.5062 17.8886 161° South  Level Estimated
Sun 05:59:00 PM 45.4017 17.9388 161° South  Level Estimated
Sun 06:00:00 PM 45.2972 17.9888 161° South  Level Estimated
Sun 06:01:00 PM 45.1927 18.0386 161° South  Level Estimated
Sun 06:02:00 PM 45.0882 18.0882 161° South  Level Estimated
Sun 06:03:00 PM 44.9836 18.1377 162° South  Level Estimated
Sun 06:04:00 PM 44.8791 18.1869 162° South  Level Estimated
Sun 06:05:00 PM 44.7745 18.2360 162° South  Level Estimated
Sun 06:06:00 PM 44.6698 18.2849 162° South  Level Estimated
Sun 06:07:00 PM 44.5652 18.3337 162° South  Level Estimated
Sun 06:08:00 PM 44.4605 18.3822 162° South  Level Estimated
Sun 06:09:00 PM 44.3559 18.4306 162° South  Level Estimated
Sun 06:10:00 PM 44.2512 18.4788 162° South  Level Estimated
Sun 06:11:00 PM 44.1464 18.5269 162° South  Level Estimated
Sun 06:12:00 PM 44.0417 18.5748 162° South  Level Estimated
Sun 06:13:00 PM 43.9369 18.6224 162° South  Level Estimated
Sun 06:14:00 PM 43.8322 18.6700 162° South  Level Estimated
Sun 06:15:00 PM 43.7274 18.7174 162° South  Level Estimated
Sun 06:16:00 PM 43.6225 18.7646 162° South  Level Estimated
Sun 06:17:00 PM 43.5177 18.8116 162° South  Level Estimated
Sun 06:18:00 PM 43.4128 18.8585 162° South  Level Estimated
Sun 06:19:00 PM 43.3080 18.9052 162° South  Level Estimated
Sun 06:20:00 PM 43.2031 18.9517 162° South  Level Estimated
Sun 06:21:00 PM 43.0981 18.9981 162° South  Level Estimated
Sun 06:22:00 PM 42.9932 19.0444 162° South  Level Estimated
Sun 06:23:00 PM 42.8883 19.0905 162° South  Level Estimated
Sun 06:24:00 PM 42.7833 19.1364 162° South  Level Estimated
Sun 06:25:00 PM 42.6783 19.1821 162° South  Level Estimated
Sun 06:26:00 PM 42.5733 19.2278 162° South  Level Estimated
Sun 06:27:00 PM 42.4683 19.2732 162° South  Level Estimated
Sun 06:28:00 PM 42.3632 19.3185 162° South  Level Estimated
Sun 06:29:00 PM 42.2582 19.3637 162° South  Level Estimated
Sun 06:30:00 PM 42.1531 19.4087 162° South  Level Estimated
Sun 06:31:00 PM 42.0480 19.4535 162° South  Level Estimated
Sun 06:32:00 PM 41.9429 19.4982 162° South  Level Estimated
Sun 06:33:00 PM 41.8377 19.5428 162° South  Level Estimated
Sun 06:34:00 PM 41.7326 19.5872 163° South  Level Estimated
Sun 06:35:00 PM 41.6274 19.6315 163° South  Level Estimated
Sun 06:36:00 PM 41.5223 19.6756 163° South  Level Estimated
Sun 06:37:00 PM 41.4171 19.7196 163° South  Level Estimated
Sun 06:38:00 PM 41.4147 19.7206 163° South  Level Estimated
Sun 06:39:00 PM 41.4147 19.7206 21° North  Level Estimated
Sun 06:40:00 PM 41.4147 19.7206 21° North  Level Estimated
Sun 06:41:00 PM 41.4147 19.7206 21° North  Level Estimated
Sun 06:42:00 PM 41.4147 19.7206 21° North  Level Estimated
Sun 06:43:00 PM 41.4147 19.7206 21° North  Level Estimated
Sun 06:44:00 PM 41.4147 19.7206 21° North  Level Estimated
Sun 06:45:00 PM 41.4147 19.7206 21° North  Level Estimated
Sun 06:46:00 PM 41.4147 19.7206 21° North  Level Estimated
Sun 06:47:00 PM 41.4147 19.7206 21° North  Level Estimated
Sun 06:48:00 PM 41.4147 19.7206 21° North  Level Estimated
Sun 06:49:00 PM 41.4147 19.7206 21° North  Level Estimated
Sun 06:50:00 PM 41.4147 19.7206 21° North  Level Estimated
Sun 06:51:00 PM 41.4147 19.7206 21° North  Level Estimated
Sun 06:52:00 PM 41.4147 19.7206 21° North  Level Estimated
Sun 06:53:00 PM 41.4147 19.7206 21° North  Level Estimated

Login

Don't have an account? Register now (free) for customized features, flight alerts, and more!